createdAt,value
2022-11-24T00:00:17.478Z,96355.31
2022-11-24T00:03:19.907Z,96364.78
2022-11-24T00:06:22.269Z,96371.06
2022-11-24T00:09:24.379Z,96371.88
2022-11-24T00:12:26.485Z,96378.69
2022-11-24T00:15:28.572Z,96393.41
2022-11-24T00:18:31.249Z,96393.41
2022-11-24T00:21:33.368Z,96385.25
2022-11-24T00:24:35.696Z,96397.84
2022-11-24T00:27:37.958Z,96401.50
2022-11-24T00:30:40.038Z,96401.19
2022-11-24T00:33:42.229Z,96409.94
2022-11-24T00:36:44.488Z,96407.63
2022-11-24T00:39:46.742Z,96403.97
2022-11-24T00:42:48.854Z,96412.91
2022-11-24T00:45:51.099Z,96406.28
2022-11-24T00:48:53.967Z,96403.97
2022-11-24T00:51:56.049Z,96426.34
2022-11-24T00:54:58.126Z,96441.84
2022-11-24T00:58:00.242Z,96435.00
2022-11-24T01:01:16.526Z,96434.97
2022-11-24T01:04:18.634Z,96445.50
2022-11-24T01:07:20.699Z,96447.09
2022-11-24T01:10:22.764Z,96445.28
2022-11-24T01:13:24.789Z,96450.78
2022-11-24T01:16:29.235Z,96460.16
2022-11-24T01:19:31.273Z,96456.19
2022-11-24T01:22:34.742Z,96471.41
2022-11-24T01:25:40.065Z,96482.47
2022-11-24T01:28:46.936Z,96495.09
2022-11-24T01:31:49.333Z,96483.28
2022-11-24T01:34:51.367Z,96489.31
2022-11-24T01:37:53.440Z,96492.78
2022-11-24T01:41:07.617Z,96506.59
2022-11-24T01:44:30.089Z,96515.81
2022-11-24T01:47:37.008Z,96511.06
2022-11-24T01:50:41.653Z,96505.53
2022-11-24T01:53:49.312Z,96513.13
2022-11-24T01:56:54.188Z,96517.66
2022-11-24T02:00:17.079Z,96518.94
2022-11-24T02:03:23.237Z,96524.44
2022-11-24T02:06:30.415Z,96530.78
2022-11-24T02:09:45.307Z,96548.66
2022-11-24T02:12:48.418Z,96556.03
2022-11-24T02:15:50.552Z,96570.81
2022-11-24T02:18:52.726Z,96546.63
2022-11-24T02:21:54.779Z,96564.75
2022-11-24T02:25:08.958Z,96563.97
2022-11-24T02:28:15.062Z,96564.22
2022-11-24T02:31:17.218Z,96568.16
2022-11-24T02:34:20.598Z,96577.13
2022-11-24T02:37:22.618Z,96584.78
2022-11-24T02:40:27.713Z,96579.00
2022-11-24T02:43:32.385Z,96579.50
2022-11-24T02:46:34.441Z,96584.28
2022-11-24T02:49:36.759Z,96597.69
2022-11-24T02:52:38.809Z,96600.56
2022-11-24T02:55:40.909Z,96612.72
2022-11-24T02:58:42.938Z,96621.38
2022-11-24T03:01:45.011Z,96618.50
2022-11-24T03:04:47.097Z,96635.59
2022-11-24T03:07:49.247Z,96642.19
2022-11-24T03:10:51.350Z,96650.88
2022-11-24T03:13:53.401Z,96656.94
2022-11-24T03:16:55.458Z,96660.66
2022-11-24T03:20:03.001Z,96665.66
2022-11-24T03:23:06.531Z,96651.44
2022-11-24T03:26:10.407Z,96649.84
2022-11-24T03:29:12.495Z,96646.31
2022-11-24T03:32:14.525Z,96640.56
2022-11-24T03:35:16.702Z,96656.97
2022-11-24T03:38:19.386Z,96659.59
2022-11-24T03:41:21.459Z,96659.81
2022-11-24T03:44:23.486Z,96660.88
2022-11-24T03:47:25.547Z,96653.53
2022-11-24T03:50:27.592Z,96660.91
2022-11-24T03:53:31.178Z,96664.59
2022-11-24T03:56:33.323Z,96668.72
2022-11-24T03:59:35.415Z,96678.00
2022-11-24T04:02:38.256Z,96680.66
2022-11-24T04:05:40.482Z,96701.22
2022-11-24T04:08:42.520Z,96696.75
2022-11-24T04:12:04.938Z,96693.84
2022-11-24T04:15:07.517Z,96692.25
2022-11-24T04:18:10.504Z,96699.63
2022-11-24T04:24:32.875Z,96704.09
2022-11-24T04:27:36.089Z,96715.44
2022-11-24T04:30:40.246Z,96715.19
2022-11-24T04:33:42.310Z,96720.44
2022-11-24T04:36:44.369Z,96727.28
2022-11-24T04:39:46.464Z,96729.13
2022-11-24T04:42:55.735Z,96736.84
2022-11-24T04:46:00.861Z,96740.97
2022-11-24T04:49:03.050Z,96743.31
2022-11-24T04:52:05.182Z,96759.72
2022-11-24T04:55:08.276Z,96761.56
2022-11-24T04:58:13.169Z,96776.56
2022-11-24T05:01:15.448Z,96780.25
2022-11-24T05:04:18.866Z,96787.66
2022-11-24T05:07:21.034Z,96795.63
2022-11-24T05:10:35.135Z,96794.56
2022-11-24T05:13:37.228Z,96801.69
2022-11-24T05:16:39.334Z,96804.31
2022-11-24T05:19:41.498Z,96805.78
2022-11-24T05:22:43.756Z,96806.16
2022-11-24T05:25:47.741Z,96788.97
2022-11-24T05:28:50.108Z,96790.59
2022-11-24T05:31:52.222Z,96794.81
2022-11-24T05:34:54.689Z,96798.50
2022-11-24T05:37:58.665Z,96805.53
2022-11-24T05:41:04.908Z,96813.19
2022-11-24T05:44:07.050Z,96812.25
2022-11-24T05:47:09.204Z,96825.91
2022-11-24T05:50:13.036Z,96826.91
2022-11-24T05:53:15.104Z,96840.56
2022-11-24T05:56:17.220Z,96843.22
2022-11-24T05:59:19.414Z,96831.91
2022-11-24T06:02:21.641Z,96848.66
2022-11-24T06:05:23.848Z,96854.19
2022-11-24T06:08:30.920Z,96842.63
2022-11-24T06:11:33.362Z,96845.09
2022-11-24T06:14:35.897Z,96844.50
2022-11-24T06:17:38.592Z,96847.19
2022-11-24T06:20:42.134Z,96855.34
2022-11-24T06:23:44.330Z,96857.69
2022-11-24T06:26:46.455Z,96865.31
2022-11-24T06:29:48.569Z,96876.41
2022-11-24T06:32:55.495Z,96875.59
2022-11-24T06:36:04.837Z,96876.06
2022-11-24T06:39:07.303Z,96892.81
2022-11-24T06:42:09.396Z,96898.13
2022-11-24T06:45:11.627Z,96893.41
2022-11-24T06:48:13.708Z,96884.00
2022-11-24T06:51:15.970Z,96884.19
2022-11-24T06:54:21.037Z,96882.84
2022-11-24T06:57:23.125Z,96872.88
2022-11-24T07:00:25.280Z,96881.53
2022-11-24T07:03:27.493Z,96866.25
2022-11-24T07:06:29.575Z,96879.38
2022-11-24T07:09:31.693Z,96886.00
2022-11-24T07:12:36.853Z,96901.06
2022-11-24T07:15:39.076Z,96893.38
2022-11-24T07:18:42.227Z,96899.84
2022-11-24T07:21:44.275Z,96902.25
2022-11-24T07:24:46.317Z,96901.16
2022-11-24T07:27:48.368Z,96917.41
2022-11-24T07:30:50.444Z,96920.09
2022-11-24T07:33:53.703Z,96924.59
2022-11-24T07:36:55.949Z,96905.63
2022-11-24T07:39:58.034Z,96908.31
2022-11-24T07:43:01.511Z,96920.53
2022-11-24T07:46:07.579Z,96936.63
2022-11-24T07:49:09.650Z,96945.81
2022-11-24T07:52:11.687Z,96957.81
2022-11-24T07:55:13.857Z,96952.00
2022-11-24T07:58:15.890Z,96951.66
2022-11-24T08:01:18.341Z,96947.81
2022-11-24T08:04:20.466Z,96962.63
2022-11-24T08:07:22.645Z,96947.34
2022-11-24T08:10:24.765Z,96972.28
2022-11-24T08:13:26.773Z,96958.25
2022-11-24T08:16:29.029Z,96962.97
2022-11-24T08:19:32.310Z,96969.69
2022-11-24T08:22:34.390Z,96980.63
2022-11-24T08:25:37.033Z,96988.81
2022-11-24T08:28:39.142Z,96992.91
2022-11-24T08:31:41.219Z,96996.34
2022-11-24T08:34:43.311Z,96999.22
2022-11-24T08:37:45.588Z,96997.47
2022-11-24T08:40:47.675Z,96997.19
2022-11-24T08:43:49.731Z,96992.50
2022-11-24T08:46:53.586Z,96983.06
2022-11-24T08:49:55.602Z,96981.31
2022-11-24T08:52:57.693Z,96981.88
2022-11-24T08:56:00.765Z,96971.38
2022-11-24T08:59:03.217Z,96971.28
2022-11-24T09:02:06.197Z,96972.34
2022-11-24T09:05:28.804Z,96964.75
2022-11-24T09:08:31.196Z,96967.44
2022-11-24T09:11:34.331Z,96969.91
2022-11-24T09:14:36.539Z,96989.38
2022-11-24T09:17:38.675Z,96986.53
2022-11-24T09:20:40.939Z,96987.03
2022-11-24T09:23:43.358Z,96980.50
2022-11-24T09:26:47.619Z,96990.22
2022-11-24T09:29:50.002Z,96981.81
2022-11-24T09:32:52.049Z,96980.31
2022-11-24T09:35:54.117Z,96965.56
2022-11-24T09:38:56.277Z,96977.06
2022-11-24T09:42:17.253Z,96975.97
2022-11-24T09:46:05.540Z,96984.13
2022-11-24T09:49:34.212Z,96985.44
2022-11-24T09:53:01.788Z,96997.94
2022-11-24T09:56:22.541Z,97010.50
2022-11-24T09:59:25.148Z,97003.84
2022-11-24T10:02:27.322Z,96996.94
2022-11-24T10:05:29.846Z,96993.22
2022-11-24T10:08:54.313Z,96985.34
2022-11-24T10:12:05.502Z,96973.75
2022-11-24T10:15:39.710Z,96960.78
2022-11-24T10:19:16.593Z,96971.00
2022-11-24T10:22:52.389Z,96961.59
2022-11-24T10:25:59.048Z,96962.50
2022-11-24T10:29:01.840Z,96961.16
2022-11-24T10:32:07.776Z,96953.91
2022-11-24T10:35:18.826Z,96945.00
2022-11-24T10:38:29.917Z,96952.31
2022-11-24T10:42:02.950Z,96948.31
2022-11-24T10:45:12.120Z,96952.28
2022-11-24T10:48:25.626Z,96959.75
2022-11-24T10:52:08.648Z,96963.72
2022-11-24T10:55:10.871Z,96961.78
2022-11-24T10:58:16.559Z,96961.47
2022-11-24T11:01:21.250Z,96963.41
2022-11-24T11:04:43.684Z,96965.94
2022-11-24T11:07:45.775Z,96966.38
2022-11-24T11:10:50.517Z,96949.25
2022-11-24T11:14:01.672Z,96948.19
2022-11-24T11:17:36.449Z,96955.88
2022-11-24T11:20:38.509Z,96933.78
2022-11-24T11:23:40.594Z,96905.66
2022-11-24T11:26:42.895Z,96909.41
2022-11-24T11:36:51.885Z,96889.28
2022-11-24T11:39:55.005Z,96885.28
2022-11-24T11:43:12.106Z,96869.84
2022-11-24T11:46:17.677Z,96880.56
2022-11-24T11:49:19.925Z,96878.88
2022-11-24T11:52:32.652Z,96862.09
2022-11-24T11:56:12.826Z,96876.31
2022-11-24T11:59:32.979Z,96884.72
2022-11-24T12:02:54.381Z,96887.91
2022-11-24T12:06:15.508Z,96877.81
2022-11-24T12:09:45.257Z,96874.59
2022-11-24T12:13:08.234Z,96857.09
2022-11-24T12:16:31.106Z,96864.94
2022-11-24T12:19:36.215Z,96854.69
2022-11-24T12:22:57.759Z,96842.75
2022-11-24T12:26:37.910Z,96829.88
2022-11-24T12:29:57.826Z,96832.47
2022-11-24T12:33:28.480Z,96809.97
2022-11-24T12:36:55.269Z,96805.44
2022-11-24T12:40:09.234Z,96813.84
2022-11-24T12:43:27.316Z,96785.78
2022-11-24T12:46:51.993Z,96766.56
2022-11-24T12:50:11.381Z,96759.75
2022-11-24T12:53:28.663Z,96750.41
2022-11-24T12:57:07.608Z,96758.97
2022-11-24T13:00:38.424Z,96737.34
2022-11-24T13:04:17.265Z,96743.50
2022-11-24T13:07:38.020Z,96714.78
2022-11-24T13:10:55.895Z,96705.50
2022-11-24T13:14:22.688Z,96726.59
2022-11-24T13:17:47.622Z,96702.09
2022-11-24T13:20:54.295Z,96713.38
2022-11-24T13:24:04.480Z,96715.75
2022-11-24T13:27:15.865Z,96712.13
2022-11-24T13:30:35.934Z,96706.34
2022-11-24T13:33:38.525Z,96693.19
2022-11-24T13:36:52.758Z,96678.22
2022-11-24T13:40:17.949Z,96661.88
2022-11-24T13:43:20.203Z,96676.88
2022-11-24T13:47:05.753Z,96661.38
2022-11-24T13:50:21.609Z,96655.09
2022-11-24T13:53:45.344Z,96659.78
2022-11-24T13:56:47.460Z,96641.94
2022-11-24T13:59:49.610Z,96645.78
2022-11-24T14:02:53.207Z,96631.63
2022-11-24T14:05:55.300Z,96627.94
2022-11-24T14:08:59.662Z,96635.88
2022-11-24T14:12:24.081Z,96629.84
2022-11-24T14:15:29.457Z,96630.34
2022-11-24T14:18:32.942Z,96604.00
2022-11-24T14:21:42.060Z,96611.91
2022-11-24T14:24:45.570Z,96606.91
2022-11-24T14:27:47.865Z,96599.00
2022-11-24T14:30:50.143Z,96598.75
2022-11-24T14:34:12.876Z,96600.06
2022-11-24T14:37:15.082Z,96610.81
2022-11-24T14:40:42.695Z,96602.72
2022-11-24T14:43:44.754Z,96597.16
2022-11-24T14:46:47.210Z,96611.63
2022-11-24T14:49:49.503Z,96625.88
2022-11-24T14:52:58.191Z,96619.03
2022-11-24T14:56:22.733Z,96671.16
2022-11-24T14:59:26.800Z,96651.97
2022-11-24T15:02:46.257Z,96590.56
2022-11-24T15:05:53.028Z,96626.16
2022-11-24T15:08:55.237Z,96608.19
2022-11-24T15:11:57.255Z,96602.09
2022-11-24T15:15:22.614Z,96589.16
2022-11-24T15:18:37.914Z,96581.78
2022-11-24T15:21:39.954Z,96586.28
2022-11-24T15:24:51.800Z,96578.41
2022-11-24T15:27:53.863Z,96563.06
2022-11-24T15:31:01.380Z,96548.81
2022-11-24T15:34:03.481Z,96590.44
2022-11-24T15:37:05.526Z,96596.31
2022-11-24T15:40:09.327Z,96582.06
2022-11-24T15:43:35.541Z,96588.97
2022-11-24T15:46:38.792Z,96571.56
2022-11-24T15:49:40.953Z,96565.53
2022-11-24T15:52:43.188Z,96560.53
2022-11-24T15:55:45.355Z,96571.63
2022-11-24T15:58:47.367Z,96584.78
2022-11-24T16:01:50.726Z,96578.47
2022-11-24T16:04:52.990Z,96574.00
2022-11-24T16:07:55.075Z,96580.06
2022-11-24T16:10:57.210Z,96596.63
2022-11-24T16:13:59.352Z,96580.06
2022-11-24T16:17:01.507Z,96579.78
2022-11-24T16:20:04.132Z,96583.47
2022-11-24T16:23:06.498Z,96579.50
2022-11-24T16:26:09.369Z,96584.25
2022-11-24T16:29:11.502Z,96590.56
2022-11-24T16:32:13.555Z,96600.84
2022-11-24T16:35:16.068Z,96591.63
2022-11-24T16:38:19.145Z,96590.56
2022-11-24T16:41:21.842Z,96599.78
2022-11-24T16:44:23.868Z,96605.59
2022-11-24T16:47:26.046Z,96608.50
2022-11-24T16:50:28.130Z,96611.91
2022-11-24T16:53:30.145Z,96615.84
2022-11-24T16:56:32.383Z,96595.84
2022-11-24T16:59:34.638Z,96588.44
2022-11-24T17:02:36.833Z,96590.31
2022-11-24T17:05:38.893Z,96589.25
2022-11-24T17:08:41.372Z,96591.59
2022-11-24T17:11:43.429Z,96618.44
2022-11-24T17:15:03.097Z,96620.59
2022-11-24T17:18:23.997Z,96626.88
2022-11-24T17:21:27.956Z,96617.09
2022-11-24T17:24:30.052Z,96630.53
2022-11-24T17:27:32.200Z,96627.59
2022-11-24T17:30:34.249Z,96628.44
2022-11-24T17:33:36.410Z,96628.16
2022-11-24T17:36:39.700Z,96623.38
2022-11-24T17:39:42.372Z,96622.34
2022-11-24T17:42:45.353Z,96626.78
2022-11-24T17:45:56.872Z,96614.75
2022-11-24T17:48:58.978Z,96628.19
2022-11-24T17:52:01.026Z,96636.06
2022-11-24T17:55:03.272Z,96638.97
2022-11-24T17:58:05.397Z,96648.41
2022-11-24T18:01:07.705Z,96650.28
2022-11-24T18:04:09.782Z,96650.09
2022-11-24T18:07:11.889Z,96649.03
2022-11-24T18:10:14.035Z,96658.25
2022-11-24T18:13:34.247Z,96656.38
2022-11-24T18:16:38.194Z,96655.63
2022-11-24T18:19:40.289Z,96653.25
2022-11-24T18:23:04.500Z,96652.97
2022-11-24T18:26:05.592Z,96648.75
2022-11-24T18:29:08.053Z,96655.84
2022-11-24T18:32:10.218Z,96654.53
2022-11-24T18:35:12.443Z,96654.00
2022-11-24T18:38:14.526Z,96657.66
2022-11-24T18:41:16.748Z,96646.38
2022-11-24T18:44:18.945Z,96647.13
2022-11-24T18:47:21.013Z,96671.09
2022-11-24T18:50:23.140Z,96682.41
2022-11-24T18:53:26.620Z,96686.63
2022-11-24T18:56:29.179Z,96687.38
2022-11-24T18:59:31.267Z,96695.06
2022-11-24T19:02:33.590Z,96712.41
2022-11-24T19:05:35.729Z,96698.28
2022-11-24T19:08:37.903Z,96699.88
2022-11-24T19:11:42.004Z,96710.34
2022-11-24T19:14:44.113Z,96716.13
2022-11-24T19:17:47.430Z,96723.88
2022-11-24T19:20:49.654Z,96699.84
2022-11-24T19:23:51.686Z,96704.56
2022-11-24T19:26:54.466Z,96689.81
2022-11-24T19:29:56.677Z,96690.03
2022-11-24T19:32:58.813Z,96692.91
2022-11-24T19:36:03.040Z,96699.97
2022-11-24T19:39:05.440Z,96700.47
2022-11-24T19:42:07.662Z,96704.16
2022-11-24T19:45:10.850Z,96725.72
2022-11-24T19:48:13.022Z,96719.84
2022-11-24T19:51:20.767Z,96709.16
2022-11-24T19:54:22.877Z,96720.97
2022-11-24T19:57:24.946Z,96733.56
2022-11-24T20:00:30.663Z,96752.81
2022-11-24T20:03:34.790Z,96770.44
2022-11-24T20:06:42.598Z,96779.00
2022-11-24T20:09:44.557Z,96775.69
2022-11-24T20:12:49.715Z,96779.16
2022-11-24T20:15:51.735Z,96786.69
2022-11-24T20:18:55.245Z,96784.91
2022-11-24T20:21:57.303Z,96760.03
2022-11-24T20:24:59.413Z,96743.56
2022-11-24T20:28:01.477Z,96738.59
2022-11-24T20:31:07.476Z,96731.22
2022-11-24T20:34:09.714Z,96750.63
2022-11-24T20:37:13.573Z,96735.13
2022-11-24T20:40:15.715Z,96727.88
2022-11-24T20:43:17.745Z,96723.66
2022-11-24T20:46:21.698Z,96733.50
2022-11-24T20:49:23.810Z,96732.69
2022-11-24T20:52:25.881Z,96730.28
2022-11-24T20:55:27.942Z,96743.81
2022-11-24T20:58:30.231Z,96757.88
2022-11-24T21:01:40.972Z,96762.69
2022-11-24T21:04:43.012Z,96766.81
2022-11-24T21:07:45.110Z,96779.50
2022-11-24T21:10:57.124Z,96774.00
2022-11-24T21:13:59.414Z,96771.69
2022-11-24T21:17:01.610Z,96779.09
2022-11-24T21:20:03.931Z,96788.78
2022-11-24T21:23:05.992Z,96779.50
2022-11-24T21:26:11.681Z,96776.81
2022-11-24T21:29:23.316Z,96776.03
2022-11-24T21:32:26.560Z,96765.13
2022-11-24T21:35:28.661Z,96764.84
2022-11-24T21:38:30.942Z,96767.78
2022-11-24T21:41:33.712Z,96775.16
2022-11-24T21:44:36.976Z,96788.59
2022-11-24T21:47:39.252Z,96771.47
2022-11-24T21:50:41.295Z,96769.19
2022-11-24T21:53:44.312Z,96772.81
2022-11-24T21:56:46.385Z,96774.72
2022-11-24T21:59:48.626Z,96776.19
2022-11-24T22:02:50.775Z,96764.34
2022-11-24T22:05:57.630Z,96765.47
2022-11-24T22:08:59.684Z,96761.44
2022-11-24T22:12:02.059Z,96769.66
2022-11-24T22:15:04.617Z,96772.50
2022-11-24T22:18:06.652Z,96771.34
2022-11-24T22:21:14.834Z,96773.41
2022-11-24T22:24:16.974Z,96776.22
2022-11-24T22:27:19.168Z,96765.84
2022-11-24T22:30:21.222Z,96755.69
2022-11-24T22:33:23.389Z,96750.06
2022-11-24T22:36:28.218Z,96741.09
2022-11-24T22:39:30.268Z,96733.59
2022-11-24T22:42:32.428Z,96727.50
2022-11-24T22:45:35.700Z,96725.25
2022-11-24T22:48:38.241Z,96724.28
2022-11-24T22:51:40.421Z,96717.06
2022-11-24T22:54:42.580Z,96725.09
2022-11-24T22:57:48.154Z,96738.69
2022-11-24T23:00:50.516Z,96726.94
2022-11-24T23:03:54.631Z,96740.56
2022-11-24T23:06:56.789Z,96741.69
2022-11-24T23:09:58.829Z,96743.19
2022-11-24T23:13:00.876Z,96735.25
2022-11-24T23:16:07.452Z,96736.69
2022-11-24T23:19:09.632Z,96733.19
2022-11-24T23:22:11.801Z,96727.53
2022-11-24T23:25:13.927Z,96722.94
2022-11-24T23:28:16.012Z,96722.28
2022-11-24T23:31:20.771Z,96725.03
2022-11-24T23:34:22.880Z,96732.91
2022-11-24T23:37:39.330Z,96746.28
2022-11-24T23:40:47.005Z,96754.19
2022-11-24T23:43:49.120Z,96754.97
2022-11-24T23:46:51.244Z,96764.16
2022-11-24T23:49:53.308Z,96764.91
2022-11-24T23:52:55.520Z,96764.31
2022-11-24T23:55:57.688Z,96760.69
2022-11-24T23:59:00.769Z,96762.16
